Time;durP1;ratioP1;P1;durP2;ratioP2;P2;SDS_P1;SDS_P2;PMS_P1;PMS_P2;Temp;Humidity;BMP_temperature;BMP_pressure;BME280_temperature;BME280_humidity;BME280_pressure;Samples;Min_cycle;Max_cycle;Signal;HPM_P1;HPM_P2
2022/08/13 00:01:26;;;;;;;12.57;5.40;;;23.40;99.90;;;;;;5074072;28;20639;-68
2022/08/13 00:03:53;;;;;;;10.70;5.10;;;23.40;99.90;;;;;;5060929;28;20188;-72
2022/08/13 00:07:02;;;;;;;5.75;4.40;;;23.30;99.90;;;;;;5053128;28;20197;-73
2022/08/13 00:09:11;;;;;;;13.07;5.03;;;23.30;99.90;;;;;;5052363;28;20211;-72
2022/08/13 00:14:29;;;;;;;8.45;4.60;;;23.30;99.90;;;;;;5056308;28;20204;-68
2022/08/13 00:16:55;;;;;;;10.85;4.80;;;23.30;99.90;;;;;;5060232;28;20188;-67
2022/08/13 00:19:23;;;;;;;8.88;5.60;;;23.30;99.90;;;;;;5054777;28;20180;-67
2022/08/13 00:21:49;;;;;;;10.90;4.78;;;23.20;99.90;;;;;;5040651;28;20675;-67
2022/08/13 00:24:15;;;;;;;11.63;5.13;;;23.20;99.90;;;;;;5050663;28;20185;-68
2022/08/13 00:26:41;;;;;;;9.43;4.15;;;23.10;99.90;;;;;;5054667;28;20209;-68
2022/08/13 00:29:08;;;;;;;9.15;4.38;;;23.10;99.90;;;;;;5052893;28;20177;-67
2022/08/13 00:31:34;;;;;;;8.18;4.25;;;23.10;99.90;;;;;;5053287;28;20269;-71
2022/08/13 00:34:00;;;;;;;10.63;4.32;;;23.10;99.90;;;;;;5045211;28;20719;-68
2022/08/13 00:36:28;;;;;;;9.85;4.60;;;23.10;99.90;;;;;;5050865;28;20227;-68
2022/08/13 00:38:53;;;;;;;9.85;4.63;;;23.10;99.90;;;;;;5049014;28;20203;-68
2022/08/13 00:41:38;;;;;;;16.45;4.82;;;23.10;99.90;;;;;;5050030;28;20710;-68
2022/08/13 00:44:10;;;;;;;10.38;4.20;;;23.10;99.90;;;;;;5049992;28;20177;-68
2022/08/13 00:46:37;;;;;;;13.05;4.95;;;23.10;99.90;;;;;;5052508;28;20232;-69
2022/08/13 00:49:04;;;;;;;9.63;4.50;;;23.00;99.90;;;;;;5050745;28;20256;-68
2022/08/13 00:51:31;;;;;;;9.98;4.80;;;23.00;99.90;;;;;;5053222;28;20169;-69
2022/08/13 00:53:58;;;;;;;9.98;5.03;;;22.90;99.90;;;;;;5051231;28;20184;-70
2022/08/13 00:56:25;;;;;;;12.82;4.80;;;22.80;99.90;;;;;;5053110;28;20208;-69
2022/08/13 00:58:52;;;;;;;10.88;4.72;;;22.70;99.90;;;;;;5052212;28;20180;-69
2022/08/13 01:01:23;;;;;;;14.13;4.85;;;22.70;99.90;;;;;;5053266;28;20173;-69
2022/08/13 01:03:51;;;;;;;9.73;4.60;;;22.70;99.90;;;;;;5051610;28;20169;-69
2022/08/13 01:06:18;;;;;;;9.32;4.35;;;22.70;99.90;;;;;;5051847;28;20747;-69
2022/08/13 01:08:44;;;;;;;9.32;4.18;;;22.60;99.90;;;;;;5050653;28;20709;-69
2022/08/13 01:11:12;;;;;;;9.85;4.53;;;22.70;99.90;;;;;;5051850;28;20188;-69
2022/08/13 01:13:41;;;;;;;7.88;4.28;;;22.60;99.90;;;;;;5049982;28;20180;-69
2022/08/13 01:16:13;;;;;;;11.75;4.50;;;22.50;99.90;;;;;;5051475;28;20181;-69
2022/08/13 01:18:43;;;;;;;12.52;4.43;;;22.50;99.90;;;;;;5050277;28;20177;-68
2022/08/13 01:21:18;;;;;;;7.95;4.70;;;22.40;99.90;;;;;;5051601;28;20193;-68
2022/08/13 01:23:48;;;;;;;9.88;4.10;;;22.30;99.90;;;;;;5050164;28;20200;-68
2022/08/13 01:26:15;;;;;;;9.32;4.15;;;22.30;99.90;;;;;;5039276;28;20740;-68
2022/08/13 01:28:43;;;;;;;9.23;3.88;;;22.20;99.90;;;;;;5050838;28;20193;-66
2022/08/13 01:31:11;;;;;;;5.57;3.50;;;22.10;99.90;;;;;;5052479;28;20371;-66
2022/08/13 01:33:38;;;;;;;10.52;4.13;;;22.10;99.90;;;;;;5050916;28;20265;-67
2022/08/13 01:36:05;;;;;;;6.30;3.70;;;22.10;99.90;;;;;;5052005;28;20209;-67
2022/08/13 01:38:32;;;;;;;6.55;4.25;;;22.10;99.90;;;;;;5050812;28;20181;-67
2022/08/13 01:40:58;;;;;;;9.15;3.60;;;22.00;99.90;;;;;;5051812;28;20199;-66
2022/08/13 01:43:29;;;;;;;10.20;4.15;;;22.00;99.90;;;;;;5050504;28;20273;-66
2022/08/13 01:45:57;;;;;;;6.38;3.67;;;21.90;99.90;;;;;;5050850;28;20220;-66
2022/08/13 01:51:13;;;;;;;10.30;3.88;;;21.80;99.90;;;;;;5052178;28;20255;-66
2022/08/13 01:53:40;;;;;;;8.82;3.78;;;21.70;99.90;;;;;;5049395;28;20205;-66
2022/08/13 01:56:07;;;;;;;7.65;3.85;;;21.60;99.90;;;;;;5050367;28;20204;-66
2022/08/13 01:58:34;;;;;;;8.93;4.38;;;21.60;99.90;;;;;;5051997;28;20554;-65
2022/08/13 02:01:02;;;;;;;6.93;3.88;;;21.30;99.90;;;;;;5048494;28;20185;-66
2022/08/13 02:03:28;;;;;;;10.50;3.85;;;21.50;99.90;;;;;;5050051;28;20181;-65
2022/08/13 02:05:55;;;;;;;12.00;4.00;;;21.40;99.90;;;;;;5051683;28;20235;-65
2022/08/13 02:08:26;;;;;;;5.13;3.75;;;21.40;99.90;;;;;;5051102;28;20643;-66
2022/08/13 02:10:54;;;;;;;7.97;4.47;;;21.40;99.90;;;;;;5050607;28;20173;-66
2022/08/13 02:13:24;;;;;;;7.82;3.60;;;21.40;99.90;;;;;;5050701;28;20192;-67
2022/08/13 02:15:50;;;;;;;10.73;4.30;;;21.40;99.90;;;;;;5050744;28;20178;-67
2022/08/13 02:18:18;;;;;;;6.45;3.58;;;21.30;99.90;;;;;;5050129;28;20211;-68
2022/08/13 02:20:52;;;;;;;6.28;4.20;;;21.30;99.90;;;;;;5049569;28;20169;-67
2022/08/13 02:23:25;;;;;;;8.00;4.30;;;21.20;99.90;;;;;;5050428;28;20192;-67
2022/08/13 02:25:52;;;;;;;8.65;4.40;;;21.00;99.90;;;;;;5036220;28;20176;-67
2022/08/13 02:28:19;;;;;;;8.25;4.32;;;20.90;99.90;;;;;;5051397;28;20181;-67
2022/08/13 02:30:46;;;;;;;7.28;4.00;;;20.90;99.90;;;;;;5049513;28;20662;-68
2022/08/13 02:33:13;;;;;;;8.32;4.28;;;20.90;99.90;;;;;;5048088;28;20224;-67
2022/08/13 02:35:39;;;;;;;6.57;3.60;;;20.80;99.90;;;;;;5031266;28;20213;-68
2022/08/13 02:38:06;;;;;;;8.93;4.40;;;20.80;99.90;;;;;;5051332;28;20184;-68
2022/08/13 02:43:17;;;;;;;10.07;4.38;;;20.70;99.90;;;;;;5031596;28;20212;-67
2022/08/13 02:45:46;;;;;;;7.28;3.58;;;20.70;99.90;;;;;;5035124;28;20655;-67
2022/08/13 02:48:12;;;;;;;6.68;4.35;;;20.60;99.90;;;;;;5049392;28;20656;-67
2022/08/13 02:50:45;;;;;;;7.57;4.70;;;20.70;99.90;;;;;;5050863;28;20174;-65
2022/08/13 02:53:13;;;;;;;10.13;4.60;;;20.70;99.90;;;;;;5050261;28;20185;-65
2022/08/13 02:55:41;;;;;;;7.05;4.13;;;20.80;99.90;;;;;;5051228;28;20173;-65
2022/08/13 02:58:08;;;;;;;6.72;4.20;;;20.80;99.90;;;;;;5050294;28;20191;-66
2022/08/13 03:00:34;;;;;;;8.90;4.47;;;20.90;99.90;;;;;;5050079;28;20227;-66
2022/08/13 03:03:01;;;;;;;8.50;4.18;;;20.90;99.90;;;;;;5049330;28;20315;-65
2022/08/13 03:05:30;;;;;;;10.88;4.30;;;20.70;99.90;;;;;;5049362;28;20213;-65
2022/08/13 03:07:56;;;;;;;10.77;4.63;;;20.60;99.90;;;;;;5049765;28;20223;-65
2022/08/13 03:10:25;;;;;;;10.82;4.35;;;20.70;99.90;;;;;;5050851;28;20226;-66
2022/08/13 03:13:04;;;;;;;9.25;3.92;;;20.70;99.90;;;;;;5045491;28;20556;-66
2022/08/13 03:15:31;;;;;;;14.30;4.22;;;20.80;99.90;;;;;;5050136;28;20181;-66
2022/08/13 03:17:57;;;;;;;5.50;3.70;;;20.90;99.90;;;;;;5049863;28;20636;-66
2022/08/13 03:20:23;;;;;;;10.88;4.47;;;20.90;99.90;;;;;;5048534;28;20226;-66
2022/08/13 03:22:54;;;;;;;13.23;4.30;;;21.00;99.90;;;;;;5048912;28;20227;-66
2022/08/13 03:25:21;;;;;;;11.10;4.30;;;21.10;99.90;;;;;;5050716;28;20643;-66
2022/08/13 03:27:48;;;;;;;11.00;4.25;;;21.20;99.90;;;;;;5048960;28;20213;-67
2022/08/13 03:30:17;;;;;;;7.22;4.05;;;21.20;99.90;;;;;;5039312;28;20189;-66
2022/08/13 03:32:44;;;;;;;10.25;4.22;;;21.20;99.90;;;;;;5049432;28;20223;-67
2022/08/13 03:35:25;;;;;;;9.90;4.15;;;21.30;99.90;;;;;;5050327;28;20196;-67
2022/08/13 03:37:54;;;;;;;8.15;3.95;;;21.30;99.90;;;;;;5049886;28;20185;-67
2022/08/13 03:40:21;;;;;;;11.00;4.45;;;21.30;99.90;;;;;;5048356;28;20647;-67
2022/08/13 03:42:50;;;;;;;8.65;4.53;;;21.20;99.90;;;;;;5050055;28;20208;-68
2022/08/13 03:45:18;;;;;;;8.05;4.50;;;21.10;99.90;;;;;;5049775;28;20272;-67
2022/08/13 03:47:44;;;;;;;15.50;4.70;;;21.00;99.90;;;;;;5048727;28;20216;-68
2022/08/13 03:50:12;;;;;;;9.85;4.15;;;20.90;99.90;;;;;;5048886;28;20188;-67
2022/08/13 03:52:39;;;;;;;10.25;4.35;;;20.80;99.90;;;;;;5049107;28;20181;-67
2022/08/13 03:55:13;;;;;;;7.97;4.57;;;20.80;99.90;;;;;;5050532;28;20795;-68
2022/08/13 03:57:41;;;;;;;11.60;4.10;;;20.90;99.90;;;;;;5049695;28;20181;-70
2022/08/13 04:00:11;;;;;;;9.00;4.20;;;20.90;99.90;;;;;;5050715;28;20615;-69
2022/08/13 04:02:42;;;;;;;8.50;4.20;;;20.80;99.90;;;;;;5048148;28;20251;-71
2022/08/13 04:05:16;;;;;;;9.45;3.88;;;20.70;99.90;;;;;;5048829;28;20192;-71
2022/08/13 04:07:42;;;;;;;9.82;4.20;;;20.60;99.90;;;;;;5047901;28;20687;-72
2022/08/13 04:10:09;;;;;;;9.82;4.40;;;20.40;99.90;;;;;;5050410;28;20176;-67
2022/08/13 04:12:36;;;;;;;5.82;4.50;;;20.30;99.90;;;;;;5049302;28;20189;-68
2022/08/13 04:15:02;;;;;;;11.82;4.70;;;20.20;99.90;;;;;;5051667;28;20185;-68
2022/08/13 04:17:28;;;;;;;10.30;4.28;;;20.00;99.90;;;;;;5052392;28;20181;-66
2022/08/13 04:19:57;;;;;;;8.02;4.53;;;19.90;99.90;;;;;;5052460;28;20532;-67
2022/08/13 04:22:27;;;;;;;6.47;4.03;;;19.90;99.90;;;;;;5051746;28;20184;-66
2022/08/13 04:24:53;;;;;;;10.30;4.35;;;19.80;99.90;;;;;;5052572;28;20174;-70
2022/08/13 04:27:19;;;;;;;10.55;3.88;;;19.80;99.90;;;;;;5051566;28;20790;-70
2022/08/13 04:29:45;;;;;;;8.60;4.13;;;19.90;99.90;;;;;;5052845;28;20260;-70
2022/08/13 04:32:10;;;;;;;12.50;4.18;;;19.90;99.90;;;;;;5051733;28;20721;-70
2022/08/13 04:34:36;;;;;;;11.90;4.20;;;19.90;99.90;;;;;;5052597;28;20181;-71
2022/08/13 04:37:02;;;;;;;7.97;4.18;;;19.90;99.90;;;;;;5052008;28;20248;-71
2022/08/13 04:39:28;;;;;;;13.85;4.93;;;20.00;99.90;;;;;;5050775;28;20173;-70
2022/08/13 04:41:53;;;;;;;9.13;4.10;;;19.90;99.90;;;;;;5051731;28;20231;-70
2022/08/13 04:44:20;;;;;;;8.75;4.30;;;19.70;99.90;;;;;;5052132;28;20169;-71
2022/08/13 04:46:45;;;;;;;12.55;4.35;;;19.60;99.90;;;;;;5052368;28;20216;-71
2022/08/13 04:49:12;;;;;;;16.73;4.63;;;19.60;99.90;;;;;;5051736;28;20189;-70
2022/08/13 04:51:38;;;;;;;9.98;4.25;;;19.50;99.90;;;;;;5051436;28;20173;-71
2022/08/13 04:54:05;;;;;;;8.00;3.85;;;19.50;99.90;;;;;;5051696;28;20181;-71
2022/08/13 04:56:30;;;;;;;9.18;3.75;;;19.50;99.90;;;;;;5053085;28;20161;-70
2022/08/13 04:58:56;;;;;;;5.32;3.83;;;19.50;99.90;;;;;;5052875;28;20173;-71
2022/08/13 05:01:23;;;;;;;6.90;3.85;;;19.50;99.90;;;;;;5050435;28;20567;-73
2022/08/13 05:03:48;;;;;;;7.70;3.95;;;19.50;99.90;;;;;;5050283;28;20173;-72
2022/08/13 05:06:21;;;;;;;9.98;4.22;;;19.50;99.90;;;;;;5050737;28;20204;-71
2022/08/13 05:08:50;;;;;;;11.57;3.97;;;19.50;99.90;;;;;;5052867;28;20176;-72
2022/08/13 05:11:18;;;;;;;11.90;4.05;;;19.50;99.90;;;;;;5052484;28;20240;-71
2022/08/13 05:13:45;;;;;;;9.30;3.90;;;19.50;99.90;;;;;;5051942;28;20181;-71
2022/08/13 05:16:20;;;;;;;7.68;3.80;;;19.50;99.90;;;;;;5052109;28;20181;-72
2022/08/13 05:18:53;;;;;;;9.48;3.70;;;19.60;99.90;;;;;;5050442;28;20200;-72
2022/08/13 05:21:23;;;;;;;5.97;3.78;;;19.60;99.90;;;;;;5049320;28;20196;-72
2022/08/13 05:23:53;;;;;;;9.23;3.78;;;19.70;99.90;;;;;;5050760;28;20252;-69
2022/08/13 05:26:22;;;;;;;7.53;3.80;;;19.60;99.90;;;;;;5050052;28;20600;-70
2022/08/13 05:28:49;;;;;;;10.18;3.85;;;19.60;99.90;;;;;;5050014;28;20196;-68
2022/08/13 05:31:17;;;;;;;5.95;3.53;;;19.60;99.90;;;;;;5048468;28;20186;-69
2022/08/13 05:33:42;;;;;;;8.50;3.75;;;19.70;99.90;;;;;;5051379;28;20651;-69
2022/08/13 05:36:09;;;;;;;8.00;3.60;;;19.70;99.90;;;;;;5050420;28;20243;-68
2022/08/13 05:38:37;;;;;;;12.30;4.07;;;19.70;99.90;;;;;;5051656;28;20259;-68
2022/08/13 05:41:06;;;;;;;7.40;3.72;;;19.70;99.90;;;;;;5050718;28;20227;-67
2022/08/13 05:43:36;;;;;;;7.53;3.78;;;19.80;99.90;;;;;;5051917;28;20670;-67
2022/08/13 05:46:08;;;;;;;6.05;3.83;;;19.90;99.90;;;;;;5050718;28;20188;-66
2022/08/13 05:48:39;;;;;;;10.43;3.60;;;19.90;99.90;;;;;;5051607;28;20729;-71
2022/08/13 05:51:08;;;;;;;13.57;4.03;;;20.00;99.90;;;;;;5051426;28;20208;-71
2022/08/13 05:53:38;;;;;;;8.80;3.65;;;19.90;99.90;;;;;;5052163;28;20177;-71
2022/08/13 05:56:06;;;;;;;7.95;3.33;;;19.90;99.90;;;;;;5049302;28;20181;-71
2022/08/13 05:58:32;;;;;;;5.05;3.20;;;19.90;99.90;;;;;;5051005;28;20187;-71
2022/08/13 06:03:43;;;;;;;9.15;3.65;;;19.80;99.90;;;;;;5032328;28;20255;-71
2022/08/13 06:06:11;;;;;;;8.25;3.25;;;19.90;99.90;;;;;;5049895;28;20208;-70
2022/08/13 06:08:42;;;;;;;9.82;3.75;;;20.00;99.90;;;;;;5050595;28;20208;-70
2022/08/13 06:11:14;;;;;;;10.27;4.00;;;20.20;99.90;;;;;;5049565;28;20184;-68
2022/08/13 06:13:40;;;;;;;9.30;3.67;;;20.10;99.90;;;;;;5050849;28;20189;-68
2022/08/13 06:16:08;;;;;;;15.75;4.32;;;20.20;99.90;;;;;;5050838;28;20544;-67
2022/08/13 06:18:37;;;;;;;13.10;4.13;;;20.10;99.90;;;;;;5050609;28;20174;-67
2022/08/13 06:21:06;;;;;;;10.55;3.80;;;20.20;99.90;;;;;;5051476;28;20184;-68
2022/08/13 06:23:36;;;;;;;11.52;4.00;;;20.20;99.90;;;;;;5050053;28;20173;-68
2022/08/13 06:26:04;;;;;;;10.75;3.53;;;20.30;99.90;;;;;;5049330;28;20247;-69
2022/08/13 06:28:31;;;;;;;8.88;4.10;;;20.30;99.90;;;;;;5049367;28;20193;-69
2022/08/13 06:31:00;;;;;;;7.90;3.47;;;20.30;99.90;;;;;;5051311;28;20187;-69
2022/08/13 06:33:27;;;;;;;11.05;4.10;;;20.40;99.90;;;;;;5050743;28;20188;-69
2022/08/13 06:35:55;;;;;;;6.13;4.03;;;20.60;99.90;;;;;;5050164;28;20296;-66
2022/08/13 06:38:25;;;;;;;9.95;3.70;;;20.50;99.90;;;;;;5049493;28;20292;-67
2022/08/13 06:40:52;;;;;;;15.07;3.60;;;20.50;99.90;;;;;;5049421;28;20184;-66
2022/08/13 06:43:19;;;;;;;9.95;4.05;;;20.60;99.90;;;;;;5051232;28;20675;-67
2022/08/13 06:45:46;;;;;;;13.50;3.42;;;20.70;99.90;;;;;;5049715;28;20173;-69
2022/08/13 06:48:13;;;;;;;7.80;3.38;;;20.80;99.90;;;;;;5048595;28;20544;-69
2022/08/13 06:50:39;;;;;;;8.98;4.00;;;20.80;99.90;;;;;;5050189;28;20173;-68
2022/08/13 06:53:06;;;;;;;14.30;3.65;;;20.90;99.90;;;;;;5048807;28;20307;-68
2022/08/13 06:55:36;;;;;;;6.82;3.83;;;20.90;99.90;;;;;;5050834;28;20260;-68
2022/08/13 06:58:11;;;;;;;11.40;3.78;;;21.00;99.90;;;;;;5050188;28;20652;-68
2022/08/13 07:00:38;;;;;;;11.80;3.88;;;21.10;99.90;;;;;;5050129;28;20195;-69
2022/08/13 07:03:05;;;;;;;7.82;3.90;;;21.20;99.90;;;;;;5050080;28;20177;-68
2022/08/13 07:05:38;;;;;;;10.27;3.42;;;21.30;99.90;;;;;;5047571;28;20272;-68
2022/08/13 07:08:07;;;;;;;11.60;3.65;;;21.30;99.90;;;;;;5049699;28;20704;-68
2022/08/13 07:10:34;;;;;;;5.53;3.50;;;21.30;99.90;;;;;;5049852;28;20200;-68
2022/08/13 07:13:01;;;;;;;7.85;3.50;;;21.40;99.90;;;;;;5049871;28;20193;-69
2022/08/13 07:15:27;;;;;;;11.52;3.55;;;21.60;99.90;;;;;;5049493;28;20663;-69
2022/08/13 07:17:55;;;;;;;5.57;3.53;;;21.60;99.90;;;;;;5050936;28;20173;-68
2022/08/13 07:20:21;;;;;;;13.80;3.83;;;21.70;99.90;;;;;;5049596;28;20172;-69
2022/08/13 07:22:47;;;;;;;8.23;3.50;;;21.80;99.90;;;;;;5049847;28;20177;-69
2022/08/13 07:25:14;;;;;;;13.27;4.40;;;21.90;99.90;;;;;;5048773;28;20256;-68
2022/08/13 07:27:41;;;;;;;11.25;3.70;;;22.00;99.90;;;;;;5047888;28;20683;-69
2022/08/13 07:30:08;;;;;;;12.82;3.70;;;22.00;99.90;;;;;;5049165;28;20284;-68
2022/08/13 07:32:38;;;;;;;10.23;4.30;;;22.10;99.90;;;;;;5049994;28;20173;-69
2022/08/13 07:35:08;;;;;;;9.27;3.40;;;22.20;99.90;;;;;;5049637;28;20268;-70
2022/08/13 07:37:35;;;;;;;12.90;3.70;;;22.30;99.90;;;;;;5049958;28;20259;-70
2022/08/13 07:40:02;;;;;;;15.55;3.78;;;22.40;99.90;;;;;;5049602;28;20576;-69
2022/08/13 07:42:28;;;;;;;7.88;3.83;;;22.40;99.90;;;;;;5049788;28;20184;-68
2022/08/13 07:44:54;;;;;;;7.07;3.35;;;22.50;99.90;;;;;;5049512;28;20200;-68
2022/08/13 07:47:23;;;;;;;10.60;4.03;;;22.60;99.90;;;;;;5049606;28;20813;-67
2022/08/13 07:49:50;;;;;;;13.35;3.72;;;22.60;99.90;;;;;;5052315;28;20169;-69
2022/08/13 07:52:16;;;;;;;20.73;3.88;;;22.70;99.90;;;;;;5053973;28;20303;-70
2022/08/13 07:54:43;;;;;;;11.02;3.85;;;22.80;99.90;;;;;;5053897;28;20176;-71
2022/08/13 07:57:10;;;;;;;15.10;3.88;;;22.90;99.90;;;;;;5052717;28;20173;-68
2022/08/13 07:59:36;;;;;;;15.00;4.07;;;23.00;99.90;;;;;;5052288;28;20239;-68
2022/08/13 08:02:05;;;;;;;7.32;3.65;;;23.20;99.90;;;;;;5052327;28;20636;-69
2022/08/13 08:04:34;;;;;;;11.20;3.53;;;23.30;99.90;;;;;;5053539;28;20184;-69
2022/08/13 08:07:01;;;;;;;7.00;3.42;;;23.30;99.90;;;;;;5052547;28;20230;-69
2022/08/13 08:09:31;;;;;;;13.20;3.75;;;23.40;99.90;;;;;;5054050;28;20666;-69
2022/08/13 08:14:48;;;;;;;4.82;3.33;;;23.50;99.90;;;;;;5052807;28;20192;-68
2022/08/13 08:17:13;;;;;;;10.02;3.42;;;23.70;99.90;;;;;;5051946;28;20181;-68
2022/08/13 08:19:40;;;;;;;10.57;4.13;;;23.90;99.90;;;;;;5052739;28;20614;-68
2022/08/13 08:22:07;;;;;;;13.93;3.72;;;24.00;99.90;;;;;;5053039;28;20184;-68
2022/08/13 08:24:34;;;;;;;9.23;3.67;;;24.20;99.90;;;;;;5053553;28;20175;-67
2022/08/13 08:27:03;;;;;;;7.80;3.47;;;24.60;99.90;;;;;;5051323;28;20753;-67
2022/08/13 08:29:32;;;;;;;9.57;3.70;;;26.10;99.90;;;;;;5053282;28;20176;-66
2022/08/13 08:32:07;;;;;;;14.13;3.92;;;27.30;99.90;;;;;;5052667;28;20208;-68
2022/08/13 08:34:35;;;;;;;9.57;3.70;;;28.20;99.90;;;;;;5052454;28;20173;-68
2022/08/13 08:37:01;;;;;;;12.32;3.33;;;29.10;99.90;;;;;;5050842;28;20224;-70
2022/08/13 08:45:00;;;;;;;9.95;3.08;;;31.20;99.90;;;;;;5050477;28;20598;-68
2022/08/13 08:47:35;;;;;;;8.63;3.03;;;31.60;99.90;;;;;;5053049;28;20228;-68
2022/08/13 08:50:02;;;;;;;13.60;3.63;;;31.70;99.90;;;;;;5053428;28;20173;-67
2022/08/13 08:55:14;;;;;;;10.70;3.20;;;32.30;99.90;;;;;;5034388;28;20264;-68
2022/08/13 08:57:44;;;;;;;13.43;3.65;;;32.60;99.90;;;;;;5047286;28;20173;-69
2022/08/13 09:00:15;;;;;;;8.02;3.15;;;32.50;99.90;;;;;;5059552;28;20175;-69
2022/08/13 09:02:42;;;;;;;13.45;3.60;;;33.10;99.90;;;;;;5041208;28;20682;-69
2022/08/13 09:05:14;;;;;;;12.18;3.25;;;32.40;99.90;;;;;;5067232;28;20168;-68
2022/08/13 09:07:41;;;;;;;8.50;3.42;;;32.60;99.90;;;;;;5069694;28;20226;-65
2022/08/13 09:10:12;;;;;;;8.80;2.80;;;32.60;99.90;;;;;;5050095;28;20334;-60
2022/08/13 09:12:42;;;;;;;14.57;3.60;;;32.80;99.90;;;;;;5044783;28;20275;-62
2022/08/13 09:15:09;;;;;;;11.00;3.40;;;32.30;99.90;;;;;;5043140;28;20678;-74
2022/08/13 09:17:37;;;;;;;9.88;3.33;;;31.10;99.90;;;;;;5042550;28;20399;-62
2022/08/13 09:20:04;;;;;;;12.00;3.22;;;30.80;99.90;;;;;;5053535;28;20247;-59
2022/08/13 09:22:31;;;;;;;16.40;5.68;;;30.60;99.90;;;;;;5052570;28;20188;-61
2022/08/13 09:24:58;;;;;;;11.80;3.70;;;30.80;99.90;;;;;;5052161;28;20173;-60
2022/08/13 09:27:27;;;;;;;18.63;3.72;;;30.80;99.90;;;;;;5051901;28;20209;-60
2022/08/13 09:29:54;;;;;;;12.10;3.60;;;30.60;99.90;;;;;;5052462;28;20320;-59
2022/08/13 09:32:21;;;;;;;5.97;3.85;;;30.60;99.90;;;;;;5052420;28;20185;-59
2022/08/13 09:34:47;;;;;;;9.82;3.20;;;30.90;99.90;;;;;;5052293;28;20209;-60
2022/08/13 09:37:13;;;;;;;9.73;3.28;;;30.90;99.90;;;;;;5033854;28;20625;-59
2022/08/13 09:39:42;;;;;;;12.68;5.25;;;30.90;99.90;;;;;;5045341;28;20541;-59
2022/08/13 09:42:16;;;;;;;11.30;4.07;;;31.10;99.90;;;;;;5051613;28;20208;-60
2022/08/13 09:44:42;;;;;;;9.38;4.13;;;31.20;99.90;;;;;;5048271;28;20177;-60
2022/08/13 09:47:12;;;;;;;13.98;3.42;;;31.40;99.90;;;;;;5051952;28;20205;-59
2022/08/13 09:49:38;;;;;;;5.72;3.67;;;31.50;99.90;;;;;;5051977;28;20248;-58
2022/08/13 09:52:04;;;;;;;14.18;6.40;;;31.70;99.90;;;;;;5051561;28;20306;-59
2022/08/13 09:54:30;;;;;;;8.48;3.55;;;32.00;99.90;;;;;;5049600;28;20279;-60
2022/08/13 09:56:59;;;;;;;10.98;4.07;;;32.00;99.90;;;;;;5045202;28;20189;-58
2022/08/13 09:59:24;;;;;;;9.73;3.60;;;32.10;99.90;;;;;;5048252;28;20311;-58
2022/08/13 10:01:54;;;;;;;8.07;2.75;;;32.50;99.90;;;;;;5048474;28;20389;-61
2022/08/13 10:04:19;;;;;;;13.00;3.53;;;32.50;99.90;;;;;;5049857;28;20655;-60
2022/08/13 10:06:45;;;;;;;12.25;3.47;;;32.70;99.90;;;;;;5047164;28;20220;-60
2022/08/13 10:09:14;;;;;;;9.23;3.33;;;32.70;99.90;;;;;;5049909;28;20191;-60
2022/08/13 10:11:40;;;;;;;6.88;3.83;;;32.90;99.90;;;;;;5049210;28;20177;-61
2022/08/13 10:14:06;;;;;;;9.45;3.10;;;33.40;99.90;;;;;;5050088;28;20204;-61
2022/08/13 10:16:33;;;;;;;16.40;6.10;;;33.00;99.90;;;;;;5041233;28;20262;-61
2022/08/13 10:19:01;;;;;;;10.85;3.28;;;33.80;99.90;;;;;;5049307;28;20177;-60
2022/08/13 10:21:27;;;;;;;13.85;3.60;;;34.20;99.90;;;;;;5048105;28;20238;-61
2022/08/13 10:23:53;;;;;;;7.43;3.30;;;34.40;99.90;;;;;;5050826;28;20212;-61
2022/08/13 10:26:18;;;;;;;11.10;3.80;;;35.00;99.90;;;;;;5048478;28;20703;-61
2022/08/13 10:28:48;;;;;;;13.75;4.30;;;35.40;99.90;;;;;;5048870;28;20181;-61
2022/08/13 10:31:14;;;;;;;11.38;3.50;;;35.70;99.90;;;;;;5049477;28;20189;-61
2022/08/13 10:33:40;;;;;;;10.57;3.65;;;35.70;99.90;;;;;;5049640;28;20181;-61
2022/08/13 10:36:07;;;;;;;8.05;3.25;;;35.90;99.90;;;;;;5050403;28;20557;-63
2022/08/13 10:38:33;;;;;;;6.32;3.05;;;36.20;99.90;;;;;;5047330;28;20295;-63
2022/08/13 10:41:07;;;;;;;7.32;3.30;;;36.50;99.90;;;;;;5051139;28;20161;-64
2022/08/13 10:43:38;;;;;;;5.28;3.20;;;36.80;99.90;;;;;;5047706;28;20260;-63
2022/08/13 10:46:05;;;;;;;8.45;3.03;;;36.80;99.90;;;;;;5048449;28;20276;-63
2022/08/13 10:48:31;;;;;;;6.55;3.10;;;36.00;99.90;;;;;;5047176;28;20578;-67
2022/08/13 10:50:57;;;;;;;5.82;3.10;;;36.40;99.90;;;;;;5044356;28;20226;-64
2022/08/13 10:56:10;;;;;;;8.95;3.40;;;37.20;99.90;;;;;;5046282;28;20203;-62
2022/08/13 10:58:36;;;;;;;5.57;2.90;;;37.60;99.90;;;;;;5043254;28;20208;-63
2022/08/13 11:01:03;;;;;;;17.50;3.67;;;38.10;99.90;;;;;;5044698;28;20211;-63
2022/08/13 11:03:33;;;;;;;6.82;2.75;;;37.80;99.90;;;;;;5046982;28;20191;-60
2022/08/13 11:06:04;;;;;;;9.40;2.70;;;38.00;99.90;;;;;;5049022;28;20180;-62
2022/08/13 11:08:36;;;;;;;6.82;3.05;;;38.30;99.90;;;;;;5049828;28;20207;-62
2022/08/13 11:11:03;;;;;;;6.57;2.95;;;37.70;99.90;;;;;;5050669;28;20172;-62
2022/08/13 11:13:31;;;;;;;5.68;3.00;;;37.50;99.90;;;;;;5050787;28;20176;-63
2022/08/13 11:15:58;;;;;;;9.57;3.00;;;38.20;99.90;;;;;;5050593;28;20164;-62
2022/08/13 11:18:24;;;;;;;9.48;3.40;;;37.70;99.90;;;;;;5047935;28;20176;-62
2022/08/13 11:21:02;;;;;;;11.20;2.85;;;37.40;99.90;;;;;;5051008;28;20199;-62
2022/08/13 11:23:35;;;;;;;6.82;3.30;;;38.10;99.90;;;;;;5052127;28;20212;-62
2022/08/13 11:26:01;;;;;;;12.52;3.58;;;38.90;99.90;;;;;;5054529;28;20177;-62
2022/08/13 11:28:27;;;;;;;6.43;2.60;;;39.30;99.90;;;;;;5052850;28;20204;-62
2022/08/13 11:30:54;;;;;;;9.60;3.10;;;39.20;99.90;;;;;;5053394;28;20219;-62
2022/08/13 11:33:23;;;;;;;9.65;2.53;;;39.40;99.90;;;;;;5054294;28;20581;-63
2022/08/13 11:35:49;;;;;;;8.50;2.72;;;39.30;99.60;;;;;;5054237;28;20220;-63
2022/08/13 11:38:17;;;;;;;4.97;2.45;;;38.40;98.20;;;;;;5053191;28;20295;-62
2022/08/13 11:40:48;;;;;;;8.68;2.78;;;37.00;98.10;;;;;;5051626;28;20257;-63
2022/08/13 11:43:14;;;;;;;9.27;2.42;;;37.40;99.30;;;;;;5054632;28;20176;-62
2022/08/13 11:45:39;;;;;;;11.63;3.97;;;38.70;98.60;;;;;;5054410;28;20172;-62
2022/08/13 11:48:06;;;;;;;13.80;2.88;;;39.70;98.40;;;;;;5054319;28;20218;-62
2022/08/13 11:50:32;;;;;;;6.00;2.55;;;39.90;97.70;;;;;;5052228;28;20181;-62
2022/08/13 11:52:58;;;;;;;6.75;2.42;;;39.60;95.70;;;;;;5051165;28;20644;-62
2022/08/13 11:55:23;;;;;;;11.18;2.35;;;38.70;94.70;;;;;;5053374;28;20246;-62
2022/08/13 11:57:59;;;;;;;5.60;2.70;;;39.20;95.10;;;;;;5054224;28;20606;-62
2022/08/13 12:00:26;;;;;;;9.13;2.55;;;40.00;95.50;;;;;;5053779;28;20188;-62
2022/08/13 12:02:52;;;;;;;10.00;3.17;;;40.30;94.60;;;;;;5052529;28;20545;-63
2022/08/13 12:05:18;;;;;;;6.07;2.63;;;40.60;93.90;;;;;;5053933;28;20176;-61
2022/08/13 12:07:43;;;;;;;5.10;2.72;;;41.10;93.70;;;;;;5054089;28;20295;-62
2022/08/13 12:10:09;;;;;;;6.03;2.60;;;41.40;93.40;;;;;;5054170;28;20588;-62
2022/08/13 12:12:35;;;;;;;7.82;2.70;;;40.70;91.70;;;;;;5051970;28;20631;-61
2022/08/13 12:15:01;;;;;;;12.07;2.72;;;39.10;92.40;;;;;;5053836;28;20169;-63
2022/08/13 12:17:30;;;;;;;7.78;2.50;;;37.30;92.40;;;;;;5053812;28;20205;-62
2022/08/13 12:19:55;;;;;;;8.82;2.75;;;38.40;91.90;;;;;;5053695;28;20253;-62
2022/08/13 12:22:21;;;;;;;10.07;2.80;;;39.10;92.10;;;;;;5052023;28;20199;-63
2022/08/13 12:24:47;;;;;;;7.50;2.85;;;39.60;91.70;;;;;;5052968;28;20180;-62
2022/08/13 12:27:13;;;;;;;5.75;2.95;;;39.30;92.30;;;;;;5053643;28;20293;-62
2022/08/13 12:29:38;;;;;;;11.38;3.03;;;40.40;92.60;;;;;;5051889;28;20632;-62
2022/08/13 12:32:04;;;;;;;9.50;2.75;;;40.90;92.50;;;;;;5053535;28;20704;-62
2022/08/13 12:34:30;;;;;;;5.55;2.53;;;39.40;90.50;;;;;;5052299;28;20513;-61
2022/08/13 12:36:56;;;;;;;6.70;2.80;;;39.50;91.20;;;;;;5052048;28;20254;-61
2022/08/13 12:39:21;;;;;;;5.43;2.70;;;39.60;90.50;;;;;;5053194;28;20176;-60
2022/08/13 12:41:47;;;;;;;7.35;3.17;;;39.90;91.20;;;;;;5053358;28;20165;-60
2022/08/13 12:44:13;;;;;;;7.70;2.88;;;40.20;90.70;;;;;;5053240;28;20256;-63
2022/08/13 12:46:39;;;;;;;7.07;2.63;;;39.20;90.50;;;;;;5050397;28;20236;-63
2022/08/13 12:49:06;;;;;;;7.60;3.40;;;39.80;91.20;;;;;;5053205;28;20203;-63
2022/08/13 12:51:31;;;;;;;9.05;2.70;;;38.70;89.80;;;;;;5053120;28;20534;-63
2022/08/13 12:53:57;;;;;;;6.60;2.60;;;38.90;90.40;;;;;;5053167;28;20244;-63
2022/08/13 12:56:23;;;;;;;6.05;2.70;;;39.40;88.50;;;;;;5051017;28;20177;-63
2022/08/13 12:58:49;;;;;;;10.77;2.78;;;39.60;90.10;;;;;;5053239;28;20184;-63
2022/08/13 13:01:14;;;;;;;5.35;2.92;;;39.70;90.40;;;;;;5050998;28;20635;-62
2022/08/13 13:03:40;;;;;;;8.63;2.90;;;40.20;89.60;;;;;;5051925;28;20198;-61
2022/08/13 13:06:06;;;;;;;7.95;2.95;;;39.90;86.50;;;;;;5052871;28;20164;-62
2022/08/13 13:08:32;;;;;;;4.75;2.60;;;37.60;86.00;;;;;;5052791;28;20184;-63
2022/08/13 13:11:10;;;;;;;8.93;2.65;;;37.70;87.20;;;;;;5052851;28;20177;-62